sensor_id;sensor_type;location;lat;lon;timestamp;P1;durP1;ratioP1;P2;durP2;ratioP2
24357;SDS011;13668;52.154;5.580;2023-04-24T00:00:54;0.38;;;0.32;;
24357;SDS011;13668;52.154;5.580;2023-04-24T00:03:26;0.50;;;0.38;;
24357;SDS011;13668;52.154;5.580;2023-04-24T00:05:53;0.50;;;0.47;;
24357;SDS011;13668;52.154;5.580;2023-04-24T00:08:19;0.40;;;0.40;;
24357;SDS011;13668;52.154;5.580;2023-04-24T00:10:45;0.77;;;0.65;;
24357;SDS011;13668;52.154;5.580;2023-04-24T00:13:11;0.70;;;0.70;;
24357;SDS011;13668;52.154;5.580;2023-04-24T00:15:37;0.88;;;0.82;;
24357;SDS011;13668;52.154;5.580;2023-04-24T00:18:03;0.75;;;0.75;;
24357;SDS011;13668;52.154;5.580;2023-04-24T00:20:29;0.80;;;0.80;;
24357;SDS011;13668;52.154;5.580;2023-04-24T00:22:57;1.13;;;1.02;;
24357;SDS011;13668;52.154;5.580;2023-04-24T00:25:23;1.40;;;1.30;;
24357;SDS011;13668;52.154;5.580;2023-04-24T00:27:49;1.40;;;1.30;;
24357;SDS011;13668;52.154;5.580;2023-04-24T00:30:15;1.00;;;1.00;;
24357;SDS011;13668;52.154;5.580;2023-04-24T00:32:41;1.23;;;1.13;;
24357;SDS011;13668;52.154;5.580;2023-04-24T00:35:07;1.45;;;1.30;;
24357;SDS011;13668;52.154;5.580;2023-04-24T00:37:33;2.25;;;1.88;;
24357;SDS011;13668;52.154;5.580;2023-04-24T00:39:59;1.70;;;1.60;;
24357;SDS011;13668;52.154;5.580;2023-04-24T00:42:25;1.67;;;1.58;;
24357;SDS011;13668;52.154;5.580;2023-04-24T00:44:51;1.80;;;1.60;;
24357;SDS011;13668;52.154;5.580;2023-04-24T00:47:17;1.83;;;1.63;;
24357;SDS011;13668;52.154;5.580;2023-04-24T00:49:44;1.27;;;1.17;;
24357;SDS011;13668;52.154;5.580;2023-04-24T00:52:10;1.92;;;1.73;;
24357;SDS011;13668;52.154;5.580;2023-04-24T00:54:37;1.58;;;1.40;;
24357;SDS011;13668;52.154;5.580;2023-04-24T00:57:03;1.65;;;1.55;;
24357;SDS011;13668;52.154;5.580;2023-04-24T00:59:29;2.00;;;1.90;;
24357;SDS011;13668;52.154;5.580;2023-04-24T01:01:56;2.00;;;1.77;;
24357;SDS011;13668;52.154;5.580;2023-04-24T01:04:22;1.80;;;1.70;;
24357;SDS011;13668;52.154;5.580;2023-04-24T01:06:48;1.75;;;1.65;;
24357;SDS011;13668;52.154;5.580;2023-04-24T01:09:15;1.67;;;1.20;;
24357;SDS011;13668;52.154;5.580;2023-04-24T01:11:42;1.77;;;1.48;;
24357;SDS011;13668;52.154;5.580;2023-04-24T01:14:08;1.23;;;1.13;;
24357;SDS011;13668;52.154;5.580;2023-04-24T01:16:34;2.03;;;1.63;;
24357;SDS011;13668;52.154;5.580;2023-04-24T01:19:00;2.97;;;2.03;;
24357;SDS011;13668;52.154;5.580;2023-04-24T01:21:26;1.75;;;1.65;;
24357;SDS011;13668;52.154;5.580;2023-04-24T01:23:54;4.90;;;2.13;;
24357;SDS011;13668;52.154;5.580;2023-04-24T01:26:21;2.30;;;2.10;;
24357;SDS011;13668;52.154;5.580;2023-04-24T01:28:47;3.17;;;1.95;;
24357;SDS011;13668;52.154;5.580;2023-04-24T01:31:13;2.30;;;2.10;;
24357;SDS011;13668;52.154;5.580;2023-04-24T01:33:41;2.55;;;2.25;;
24357;SDS011;13668;52.154;5.580;2023-04-24T01:36:07;3.13;;;2.30;;
24357;SDS011;13668;52.154;5.580;2023-04-24T01:38:33;3.22;;;2.03;;
24357;SDS011;13668;52.154;5.580;2023-04-24T01:40:59;3.22;;;2.00;;
24357;SDS011;13668;52.154;5.580;2023-04-24T01:43:26;2.63;;;1.90;;
24357;SDS011;13668;52.154;5.580;2023-04-24T01:45:52;2.97;;;1.92;;
24357;SDS011;13668;52.154;5.580;2023-04-24T01:48:18;3.30;;;2.17;;
24357;SDS011;13668;52.154;5.580;2023-04-24T01:50:44;2.47;;;2.28;;
24357;SDS011;13668;52.154;5.580;2023-04-24T01:53:10;3.53;;;2.53;;
24357;SDS011;13668;52.154;5.580;2023-04-24T01:55:36;3.67;;;2.38;;
24357;SDS011;13668;52.154;5.580;2023-04-24T01:58:02;4.78;;;2.72;;
24357;SDS011;13668;52.154;5.580;2023-04-24T02:00:31;3.22;;;2.92;;
24357;SDS011;13668;52.154;5.580;2023-04-24T02:02:57;3.42;;;2.47;;
24357;SDS011;13668;52.154;5.580;2023-04-24T02:05:23;5.03;;;3.17;;
24357;SDS011;13668;52.154;5.580;2023-04-24T02:07:49;2.80;;;2.47;;
24357;SDS011;13668;52.154;5.580;2023-04-24T02:10:15;4.22;;;2.80;;
24357;SDS011;13668;52.154;5.580;2023-04-24T02:12:41;3.17;;;2.42;;
24357;SDS011;13668;52.154;5.580;2023-04-24T02:15:07;3.30;;;2.40;;
24357;SDS011;13668;52.154;5.580;2023-04-24T02:17:33;4.50;;;3.28;;
24357;SDS011;13668;52.154;5.580;2023-04-24T02:19:59;2.65;;;2.15;;
24357;SDS011;13668;52.154;5.580;2023-04-24T02:22:25;3.05;;;2.33;;
24357;SDS011;13668;52.154;5.580;2023-04-24T02:24:51;3.22;;;2.17;;
24357;SDS011;13668;52.154;5.580;2023-04-24T02:27:17;3.45;;;2.35;;
24357;SDS011;13668;52.154;5.580;2023-04-24T02:29:43;1.92;;;1.73;;
24357;SDS011;13668;52.154;5.580;2023-04-24T02:32:09;2.53;;;2.05;;
24357;SDS011;13668;52.154;5.580;2023-04-24T02:34:37;2.92;;;1.88;;
24357;SDS011;13668;52.154;5.580;2023-04-24T02:37:03;2.17;;;1.60;;
24357;SDS011;13668;52.154;5.580;2023-04-24T02:39:29;2.42;;;1.88;;
24357;SDS011;13668;52.154;5.580;2023-04-24T02:41:54;1.70;;;1.60;;
24357;SDS011;13668;52.154;5.580;2023-04-24T02:44:20;3.63;;;2.08;;
24357;SDS011;13668;52.154;5.580;2023-04-24T02:46:47;3.47;;;2.40;;
24357;SDS011;13668;52.154;5.580;2023-04-24T02:49:13;3.00;;;1.70;;
24357;SDS011;13668;52.154;5.580;2023-04-24T02:51:39;3.38;;;1.98;;
24357;SDS011;13668;52.154;5.580;2023-04-24T02:54:06;2.22;;;1.70;;
24357;SDS011;13668;52.154;5.580;2023-04-24T02:56:32;2.95;;;2.30;;
24357;SDS011;13668;52.154;5.580;2023-04-24T02:58:58;2.85;;;2.30;;
24357;SDS011;13668;52.154;5.580;2023-04-24T03:01:24;2.75;;;2.03;;
24357;SDS011;13668;52.154;5.580;2023-04-24T03:03:50;2.85;;;2.25;;
24357;SDS011;13668;52.154;5.580;2023-04-24T03:06:19;1.50;;;1.35;;
24357;SDS011;13668;52.154;5.580;2023-04-24T03:08:45;2.33;;;2.05;;
24357;SDS011;13668;52.154;5.580;2023-04-24T03:11:11;3.42;;;2.70;;
24357;SDS011;13668;52.154;5.580;2023-04-24T03:13:37;4.88;;;2.72;;
24357;SDS011;13668;52.154;5.580;2023-04-24T03:16:03;2.60;;;2.33;;
24357;SDS011;13668;52.154;5.580;2023-04-24T03:18:30;3.92;;;2.75;;
24357;SDS011;13668;52.154;5.580;2023-04-24T03:20:56;2.83;;;2.33;;
24357;SDS011;13668;52.154;5.580;2023-04-24T03:23:22;3.55;;;2.20;;
24357;SDS011;13668;52.154;5.580;2023-04-24T03:25:48;2.95;;;2.40;;
24357;SDS011;13668;52.154;5.580;2023-04-24T03:28:14;4.00;;;2.55;;
24357;SDS011;13668;52.154;5.580;2023-04-24T03:30:40;3.45;;;2.50;;
24357;SDS011;13668;52.154;5.580;2023-04-24T03:33:06;4.90;;;2.20;;
24357;SDS011;13668;52.154;5.580;2023-04-24T03:35:32;2.88;;;1.98;;
24357;SDS011;13668;52.154;5.580;2023-04-24T03:37:58;3.72;;;2.28;;
24357;SDS011;13668;52.154;5.580;2023-04-24T03:40:24;2.35;;;2.03;;
24357;SDS011;13668;52.154;5.580;2023-04-24T03:42:50;3.97;;;2.22;;
24357;SDS011;13668;52.154;5.580;2023-04-24T03:45:16;2.67;;;2.05;;
24357;SDS011;13668;52.154;5.580;2023-04-24T03:47:42;2.83;;;2.05;;
24357;SDS011;13668;52.154;5.580;2023-04-24T03:50:08;3.03;;;2.28;;
24357;SDS011;13668;52.154;5.580;2023-04-24T03:52:34;3.50;;;2.60;;
24357;SDS011;13668;52.154;5.580;2023-04-24T03:55:00;2.10;;;1.70;;
24357;SDS011;13668;52.154;5.580;2023-04-24T03:57:26;3.30;;;1.98;;
24357;SDS011;13668;52.154;5.580;2023-04-24T03:59:52;2.50;;;2.28;;
24357;SDS011;13668;52.154;5.580;2023-04-24T04:02:18;3.50;;;2.47;;
24357;SDS011;13668;52.154;5.580;2023-04-24T04:04:44;3.75;;;2.55;;
24357;SDS011;13668;52.154;5.580;2023-04-24T04:07:10;3.05;;;2.13;;
24357;SDS011;13668;52.154;5.580;2023-04-24T04:09:37;4.40;;;3.08;;
24357;SDS011;13668;52.154;5.580;2023-04-24T04:12:03;3.33;;;1.80;;
24357;SDS011;13668;52.154;5.580;2023-04-24T04:14:29;3.40;;;2.05;;
24357;SDS011;13668;52.154;5.580;2023-04-24T04:16:55;3.92;;;2.53;;
24357;SDS011;13668;52.154;5.580;2023-04-24T04:19:21;4.20;;;2.90;;
24357;SDS011;13668;52.154;5.580;2023-04-24T04:21:47;3.10;;;2.35;;
24357;SDS011;13668;52.154;5.580;2023-04-24T04:24:17;2.67;;;2.15;;
24357;SDS011;13668;52.154;5.580;2023-04-24T04:26:43;3.28;;;2.30;;
24357;SDS011;13668;52.154;5.580;2023-04-24T04:29:15;4.70;;;2.95;;
24357;SDS011;13668;52.154;5.580;2023-04-24T04:31:42;6.00;;;2.70;;
24357;SDS011;13668;52.154;5.580;2023-04-24T04:34:08;3.15;;;2.20;;
24357;SDS011;13668;52.154;5.580;2023-04-24T04:36:34;4.55;;;2.17;;
24357;SDS011;13668;52.154;5.580;2023-04-24T04:39:02;3.00;;;2.25;;
24357;SDS011;13668;52.154;5.580;2023-04-24T04:41:28;2.58;;;2.28;;
24357;SDS011;13668;52.154;5.580;2023-04-24T04:43:55;1.80;;;1.67;;
24357;SDS011;13668;52.154;5.580;2023-04-24T04:46:23;2.33;;;1.42;;
24357;SDS011;13668;52.154;5.580;2023-04-24T04:48:51;1.27;;;0.98;;
24357;SDS011;13668;52.154;5.580;2023-04-24T04:51:17;2.20;;;1.63;;
24357;SDS011;13668;52.154;5.580;2023-04-24T04:53:42;3.30;;;2.20;;
24357;SDS011;13668;52.154;5.580;2023-04-24T04:56:08;2.33;;;2.03;;
24357;SDS011;13668;52.154;5.580;2023-04-24T04:58:34;2.03;;;1.30;;
24357;SDS011;13668;52.154;5.580;2023-04-24T05:01:00;2.97;;;1.73;;
24357;SDS011;13668;52.154;5.580;2023-04-24T05:03:27;2.53;;;1.80;;
24357;SDS011;13668;52.154;5.580;2023-04-24T05:05:53;2.33;;;1.42;;
24357;SDS011;13668;52.154;5.580;2023-04-24T05:08:19;1.80;;;1.50;;
24357;SDS011;13668;52.154;5.580;2023-04-24T05:10:45;1.73;;;1.40;;
24357;SDS011;13668;52.154;5.580;2023-04-24T05:13:11;4.00;;;1.67;;
24357;SDS011;13668;52.154;5.580;2023-04-24T05:15:37;2.17;;;1.45;;
24357;SDS011;13668;52.154;5.580;2023-04-24T05:18:03;2.47;;;1.58;;
24357;SDS011;13668;52.154;5.580;2023-04-24T05:20:29;2.38;;;1.77;;
24357;SDS011;13668;52.154;5.580;2023-04-24T05:22:55;2.42;;;1.70;;
24357;SDS011;13668;52.154;5.580;2023-04-24T05:25:21;2.47;;;1.83;;
24357;SDS011;13668;52.154;5.580;2023-04-24T05:27:47;1.63;;;1.27;;
24357;SDS011;13668;52.154;5.580;2023-04-24T05:30:13;4.00;;;2.25;;
24357;SDS011;13668;52.154;5.580;2023-04-24T05:32:39;4.55;;;1.92;;
24357;SDS011;13668;52.154;5.580;2023-04-24T05:35:05;3.33;;;1.60;;
24357;SDS011;13668;52.154;5.580;2023-04-24T05:37:31;2.85;;;1.95;;
24357;SDS011;13668;52.154;5.580;2023-04-24T05:39:57;2.53;;;1.85;;
24357;SDS011;13668;52.154;5.580;2023-04-24T05:42:23;1.98;;;1.13;;
24357;SDS011;13668;52.154;5.580;2023-04-24T05:44:50;2.35;;;1.73;;
24357;SDS011;13668;52.154;5.580;2023-04-24T05:47:15;2.97;;;1.90;;
24357;SDS011;13668;52.154;5.580;2023-04-24T05:49:41;2.88;;;2.08;;
24357;SDS011;13668;52.154;5.580;2023-04-24T05:52:07;4.07;;;1.92;;
24357;SDS011;13668;52.154;5.580;2023-04-24T05:54:34;3.03;;;1.85;;
24357;SDS011;13668;52.154;5.580;2023-04-24T05:57:00;3.75;;;1.40;;
24357;SDS011;13668;52.154;5.580;2023-04-24T05:59:29;3.88;;;1.65;;
24357;SDS011;13668;52.154;5.580;2023-04-24T06:01:55;3.13;;;2.20;;
24357;SDS011;13668;52.154;5.580;2023-04-24T06:04:21;2.28;;;1.83;;
24357;SDS011;13668;52.154;5.580;2023-04-24T06:06:47;4.30;;;2.17;;
24357;SDS011;13668;52.154;5.580;2023-04-24T06:09:15;2.33;;;1.42;;
24357;SDS011;13668;52.154;5.580;2023-04-24T06:11:42;2.00;;;1.73;;
24357;SDS011;13668;52.154;5.580;2023-04-24T06:14:08;1.98;;;1.45;;
24357;SDS011;13668;52.154;5.580;2023-04-24T06:16:34;2.05;;;1.55;;
24357;SDS011;13668;52.154;5.580;2023-04-24T06:19:00;3.88;;;1.75;;
24357;SDS011;13668;52.154;5.580;2023-04-24T06:21:26;2.00;;;1.30;;
24357;SDS011;13668;52.154;5.580;2023-04-24T06:23:52;2.22;;;1.55;;
24357;SDS011;13668;52.154;5.580;2023-04-24T06:26:18;3.00;;;1.70;;
24357;SDS011;13668;52.154;5.580;2023-04-24T06:28:44;3.35;;;1.55;;
24357;SDS011;13668;52.154;5.580;2023-04-24T06:31:10;2.45;;;1.35;;
24357;SDS011;13668;52.154;5.580;2023-04-24T06:33:36;2.05;;;1.25;;
24357;SDS011;13668;52.154;5.580;2023-04-24T06:36:02;2.78;;;1.15;;
24357;SDS011;13668;52.154;5.580;2023-04-24T06:38:29;1.90;;;1.00;;
24357;SDS011;13668;52.154;5.580;2023-04-24T06:40:55;0.90;;;0.50;;
24357;SDS011;13668;52.154;5.580;2023-04-24T06:43:21;0.52;;;0.52;;
24357;SDS011;13668;52.154;5.580;2023-04-24T06:45:46;0.70;;;0.60;;
24357;SDS011;13668;52.154;5.580;2023-04-24T06:48:12;1.85;;;0.70;;
24357;SDS011;13668;52.154;5.580;2023-04-24T06:50:38;1.92;;;0.68;;
24357;SDS011;13668;52.154;5.580;2023-04-24T06:53:04;0.40;;;0.40;;
24357;SDS011;13668;52.154;5.580;2023-04-24T06:55:30;2.40;;;0.50;;
24357;SDS011;13668;52.154;5.580;2023-04-24T06:57:56;0.65;;;0.65;;
24357;SDS011;13668;52.154;5.580;2023-04-24T07:00:22;2.13;;;1.45;;
24357;SDS011;13668;52.154;5.580;2023-04-24T07:02:49;4.40;;;2.75;;
24357;SDS011;13668;52.154;5.580;2023-04-24T07:05:15;5.65;;;2.65;;
24357;SDS011;13668;52.154;5.580;2023-04-24T07:07:45;5.18;;;2.85;;
24357;SDS011;13668;52.154;5.580;2023-04-24T07:10:11;6.30;;;3.17;;
24357;SDS011;13668;52.154;5.580;2023-04-24T07:12:38;7.90;;;3.85;;
24357;SDS011;13668;52.154;5.580;2023-04-24T07:15:05;4.13;;;2.95;;
24357;SDS011;13668;52.154;5.580;2023-04-24T07:17:31;5.28;;;3.88;;
24357;SDS011;13668;52.154;5.580;2023-04-24T07:19:57;7.75;;;3.38;;
24357;SDS011;13668;52.154;5.580;2023-04-24T07:22:23;7.20;;;3.97;;
24357;SDS011;13668;52.154;5.580;2023-04-24T07:24:49;6.93;;;3.58;;
24357;SDS011;13668;52.154;5.580;2023-04-24T07:27:14;7.72;;;3.95;;
24357;SDS011;13668;52.154;5.580;2023-04-24T07:29:41;5.68;;;3.65;;
24357;SDS011;13668;52.154;5.580;2023-04-24T07:32:06;4.47;;;3.83;;
24357;SDS011;13668;52.154;5.580;2023-04-24T07:34:33;4.80;;;3.00;;
24357;SDS011;13668;52.154;5.580;2023-04-24T07:36:59;8.63;;;4.05;;
24357;SDS011;13668;52.154;5.580;2023-04-24T07:39:25;6.70;;;3.70;;
24357;SDS011;13668;52.154;5.580;2023-04-24T07:41:51;5.13;;;3.50;;
24357;SDS011;13668;52.154;5.580;2023-04-24T07:44:17;6.03;;;3.53;;
24357;SDS011;13668;52.154;5.580;2023-04-24T07:46:43;6.57;;;3.80;;
24357;SDS011;13668;52.154;5.580;2023-04-24T07:49:09;7.82;;;4.22;;
24357;SDS011;13668;52.154;5.580;2023-04-24T07:51:35;8.43;;;4.32;;
24357;SDS011;13668;52.154;5.580;2023-04-24T07:54:03;7.45;;;3.70;;
24357;SDS011;13668;52.154;5.580;2023-04-24T07:56:31;5.97;;;3.53;;
24357;SDS011;13668;52.154;5.580;2023-04-24T07:58:57;8.32;;;3.78;;
24357;SDS011;13668;52.154;5.580;2023-04-24T08:01:22;6.47;;;4.18;;
24357;SDS011;13668;52.154;5.580;2023-04-24T08:03:49;6.75;;;3.83;;
24357;SDS011;13668;52.154;5.580;2023-04-24T08:06:15;4.65;;;3.05;;
24357;SDS011;13668;52.154;5.580;2023-04-24T08:08:41;4.78;;;3.50;;
24357;SDS011;13668;52.154;5.580;2023-04-24T08:11:07;5.28;;;3.22;;
24357;SDS011;13668;52.154;5.580;2023-04-24T08:13:33;5.72;;;3.38;;
24357;SDS011;13668;52.154;5.580;2023-04-24T08:15:59;6.57;;;3.30;;
24357;SDS011;13668;52.154;5.580;2023-04-24T08:18:25;6.22;;;3.70;;
24357;SDS011;13668;52.154;5.580;2023-04-24T08:20:51;5.40;;;3.25;;
24357;SDS011;13668;52.154;5.580;2023-04-24T08:23:17;5.15;;;3.22;;
24357;SDS011;13668;52.154;5.580;2023-04-24T08:25:43;5.32;;;3.33;;
24357;SDS011;13668;52.154;5.580;2023-04-24T08:28:09;5.03;;;3.28;;
24357;SDS011;13668;52.154;5.580;2023-04-24T08:30:35;5.40;;;2.95;;
24357;SDS011;13668;52.154;5.580;2023-04-24T08:33:03;5.65;;;3.58;;
24357;SDS011;13668;52.154;5.580;2023-04-24T08:35:29;3.63;;;2.38;;
24357;SDS011;13668;52.154;5.580;2023-04-24T08:37:55;4.80;;;1.83;;
24357;SDS011;13668;52.154;5.580;2023-04-24T08:40:22;3.25;;;2.08;;
24357;SDS011;13668;52.154;5.580;2023-04-24T08:42:54;2.55;;;2.03;;
24357;SDS011;13668;52.154;5.580;2023-04-24T08:45:21;3.78;;;2.03;;
24357;SDS011;13668;52.154;5.580;2023-04-24T08:47:47;3.33;;;1.98;;
24357;SDS011;13668;52.154;5.580;2023-04-24T08:50:14;2.70;;;1.83;;
24357;SDS011;13668;52.154;5.580;2023-04-24T08:52:41;1.50;;;1.30;;
24357;SDS011;13668;52.154;5.580;2023-04-24T08:55:07;3.25;;;1.55;;
24357;SDS011;13668;52.154;5.580;2023-04-24T08:57:33;4.28;;;1.13;;
24357;SDS011;13668;52.154;5.580;2023-04-24T09:00:00;2.45;;;1.40;;
24357;SDS011;13668;52.154;5.580;2023-04-24T09:02:26;2.35;;;1.60;;
24357;SDS011;13668;52.154;5.580;2023-04-24T09:04:53;2.67;;;1.50;;
24357;SDS011;13668;52.154;5.580;2023-04-24T09:07:19;3.50;;;1.92;;
24357;SDS011;13668;52.154;5.580;2023-04-24T09:09:45;8.02;;;3.10;;
24357;SDS011;13668;52.154;5.580;2023-04-24T09:12:18;5.80;;;2.08;;
24357;SDS011;13668;52.154;5.580;2023-04-24T09:14:44;3.15;;;1.67;;
24357;SDS011;13668;52.154;5.580;2023-04-24T09:17:11;3.38;;;1.70;;
24357;SDS011;13668;52.154;5.580;2023-04-24T09:19:37;5.60;;;1.75;;
24357;SDS011;13668;52.154;5.580;2023-04-24T09:22:06;4.45;;;2.38;;
24357;SDS011;13668;52.154;5.580;2023-04-24T09:24:33;6.07;;;1.90;;
24357;SDS011;13668;52.154;5.580;2023-04-24T09:26:59;2.38;;;1.48;;
24357;SDS011;13668;52.154;5.580;2023-04-24T09:29:26;3.90;;;1.60;;
24357;SDS011;13668;52.154;5.580;2023-04-24T09:31:53;1.33;;;1.15;;
24357;SDS011;13668;52.154;5.580;2023-04-24T09:34:22;4.10;;;1.02;;
24357;SDS011;13668;52.154;5.580;2023-04-24T09:36:49;1.80;;;0.80;;
24357;SDS011;13668;52.154;5.580;2023-04-24T09:39:15;1.75;;;1.50;;
24357;SDS011;13668;52.154;5.580;2023-04-24T09:41:51;1.20;;;1.10;;
24357;SDS011;13668;52.154;5.580;2023-04-24T09:44:19;1.08;;;0.90;;
24357;SDS011;13668;52.154;5.580;2023-04-24T09:46:50;3.33;;;1.58;;
24357;SDS011;13668;52.154;5.580;2023-04-24T09:49:21;1.80;;;1.15;;
24357;SDS011;13668;52.154;5.580;2023-04-24T09:51:48;2.50;;;1.08;;
24357;SDS011;13668;52.154;5.580;2023-04-24T09:54:18;7.10;;;1.35;;
24357;SDS011;13668;52.154;5.580;2023-04-24T09:56:48;7.18;;;1.90;;
24357;SDS011;13668;52.154;5.580;2023-04-24T09:59:16;3.10;;;1.00;;
24357;SDS011;13668;52.154;5.580;2023-04-24T10:01:42;2.60;;;1.15;;
24357;SDS011;13668;52.154;5.580;2023-04-24T10:04:19;2.17;;;1.13;;
24357;SDS011;13668;52.154;5.580;2023-04-24T10:06:46;5.97;;;0.70;;
24357;SDS011;13668;52.154;5.580;2023-04-24T10:09:13;2.75;;;0.70;;
24357;SDS011;13668;52.154;5.580;2023-04-24T10:11:43;7.40;;;1.10;;
24357;SDS011;13668;52.154;5.580;2023-04-24T10:14:13;1.10;;;0.90;;
24357;SDS011;13668;52.154;5.580;2023-04-24T10:16:39;2.65;;;0.75;;
24357;SDS011;13668;52.154;5.580;2023-04-24T10:19:06;1.40;;;0.73;;
24357;SDS011;13668;52.154;5.580;2023-04-24T10:21:32;3.65;;;1.02;;
24357;SDS011;13668;52.154;5.580;2023-04-24T10:23:58;3.60;;;1.83;;
24357;SDS011;13668;52.154;5.580;2023-04-24T10:26:25;1.48;;;1.13;;
24357;SDS011;13668;52.154;5.580;2023-04-24T10:28:51;2.85;;;1.05;;
24357;SDS011;13668;52.154;5.580;2023-04-24T10:31:18;1.70;;;0.90;;
24357;SDS011;13668;52.154;5.580;2023-04-24T10:33:44;1.20;;;0.77;;
24357;SDS011;13668;52.154;5.580;2023-04-24T10:36:11;1.67;;;1.10;;
24357;SDS011;13668;52.154;5.580;2023-04-24T10:38:39;3.13;;;1.20;;
24357;SDS011;13668;52.154;5.580;2023-04-24T10:41:07;1.23;;;0.82;;
24357;SDS011;13668;52.154;5.580;2023-04-24T10:43:34;1.75;;;0.50;;
24357;SDS011;13668;52.154;5.580;2023-04-24T10:46:01;4.00;;;0.80;;
24357;SDS011;13668;52.154;5.580;2023-04-24T10:48:27;2.40;;;0.85;;
24357;SDS011;13668;52.154;5.580;2023-04-24T10:50:53;1.77;;;1.05;;
24357;SDS011;13668;52.154;5.580;2023-04-24T10:53:20;0.20;;;0.20;;
24357;SDS011;13668;52.154;5.580;2023-04-24T10:55:49;3.00;;;0.40;;
24357;SDS011;13668;52.154;5.580;2023-04-24T10:58:15;0.95;;;0.38;;
24357;SDS011;13668;52.154;5.580;2023-04-24T11:00:42;1.70;;;0.55;;
24357;SDS011;13668;52.154;5.580;2023-04-24T11:03:23;3.10;;;0.47;;
24357;SDS011;13668;52.154;5.580;2023-04-24T11:05:55;0.32;;;0.32;;
24357;SDS011;13668;52.154;5.580;2023-04-24T11:08:22;4.50;;;1.02;;
24357;SDS011;13668;52.154;5.580;2023-04-24T11:10:58;9.43;;;0.52;;
24357;SDS011;13668;52.154;5.580;2023-04-24T11:13:25;0.43;;;0.30;;
24357;SDS011;13668;52.154;5.580;2023-04-24T11:18:37;1.00;;;0.40;;
24357;SDS011;13668;52.154;5.580;2023-04-24T11:21:09;0.22;;;0.15;;
24357;SDS011;13668;52.154;5.580;2023-04-24T11:23:36;0.63;;;0.28;;
24357;SDS011;13668;52.154;5.580;2023-04-24T11:26:12;2.25;;;0.75;;
24357;SDS011;13668;52.154;5.580;2023-04-24T11:28:48;0.93;;;0.50;;
24357;SDS011;13668;52.154;5.580;2023-04-24T11:34:10;2.72;;;1.02;;
24357;SDS011;13668;52.154;5.580;2023-04-24T11:36:36;0.73;;;0.50;;
24357;SDS011;13668;52.154;5.580;2023-04-24T11:39:03;0.93;;;0.35;;
24357;SDS011;13668;52.154;5.580;2023-04-24T11:41:29;0.30;;;0.30;;
24357;SDS011;13668;52.154;5.580;2023-04-24T11:43:55;1.02;;;0.30;;
24357;SDS011;13668;52.154;5.580;2023-04-24T11:46:22;0.93;;;0.50;;
24357;SDS011;13668;52.154;5.580;2023-04-24T11:48:48;0.63;;;0.63;;
24357;SDS011;13668;52.154;5.580;2023-04-24T11:51:14;2.53;;;0.50;;
24357;SDS011;13668;52.154;5.580;2023-04-24T11:53:40;0.35;;;0.35;;
24357;SDS011;13668;52.154;5.580;2023-04-24T11:56:06;0.25;;;0.25;;
24357;SDS011;13668;52.154;5.580;2023-04-24T11:58:34;1.23;;;0.30;;
24357;SDS011;13668;52.154;5.580;2023-04-24T12:01:01;0.63;;;0.60;;
24357;SDS011;13668;52.154;5.580;2023-04-24T12:03:26;0.63;;;0.20;;
24357;SDS011;13668;52.154;5.580;2023-04-24T12:05:52;0.50;;;0.30;;
24357;SDS011;13668;52.154;5.580;2023-04-24T12:08:30;0.08;;;0.08;;
24357;SDS011;13668;52.154;5.580;2023-04-24T12:10:57;0.65;;;0.65;;
24357;SDS011;13668;52.154;5.580;2023-04-24T12:13:25;1.90;;;0.20;;
24357;SDS011;13668;52.154;5.580;2023-04-24T12:15:51;0.30;;;0.30;;
24357;SDS011;13668;52.154;5.580;2023-04-24T12:18:17;0.38;;;0.20;;
24357;SDS011;13668;52.154;5.580;2023-04-24T12:20:43;1.55;;;0.73;;
24357;SDS011;13668;52.154;5.580;2023-04-24T12:23:09;1.58;;;0.20;;
24357;SDS011;13668;52.154;5.580;2023-04-24T12:25:35;0.98;;;0.30;;
24357;SDS011;13668;52.154;5.580;2023-04-24T12:30:33;0.20;;;0.20;;
24357;SDS011;13668;52.154;5.580;2023-04-24T12:32:59;0.40;;;0.10;;
24357;SDS011;13668;52.154;5.580;2023-04-24T12:35:27;1.23;;;0.52;;
24357;SDS011;13668;52.154;5.580;2023-04-24T12:37:53;1.10;;;0.30;;
24357;SDS011;13668;52.154;5.580;2023-04-24T12:40:20;0.17;;;0.17;;
24357;SDS011;13668;52.154;5.580;2023-04-24T12:42:47;0.30;;;0.30;;
24357;SDS011;13668;52.154;5.580;2023-04-24T12:45:14;1.48;;;0.57;;
24357;SDS011;13668;52.154;5.580;2023-04-24T12:47:40;0.20;;;0.20;;
24357;SDS011;13668;52.154;5.580;2023-04-24T12:50:07;1.23;;;0.38;;
24357;SDS011;13668;52.154;5.580;2023-04-24T12:52:33;1.77;;;0.50;;
24357;SDS011;13668;52.154;5.580;2023-04-24T12:55:00;0.50;;;0.50;;
24357;SDS011;13668;52.154;5.580;2023-04-24T12:57:27;0.95;;;0.35;;
24357;SDS011;13668;52.154;5.580;2023-04-24T12:59:54;1.35;;;0.30;;
24357;SDS011;13668;52.154;5.580;2023-04-24T13:02:21;2.08;;;0.40;;
24357;SDS011;13668;52.154;5.580;2023-04-24T13:04:47;0.28;;;0.20;;
24357;SDS011;13668;52.154;5.580;2023-04-24T13:07:13;0.30;;;0.30;;
24357;SDS011;13668;52.154;5.580;2023-04-24T13:09:40;1.42;;;0.30;;
24357;SDS011;13668;52.154;5.580;2023-04-24T13:12:07;0.35;;;0.35;;
24357;SDS011;13668;52.154;5.580;2023-04-24T13:14:33;2.15;;;0.50;;
24357;SDS011;13668;52.154;5.580;2023-04-24T13:16:59;0.50;;;0.45;;
24357;SDS011;13668;52.154;5.580;2023-04-24T13:19:25;2.00;;;0.75;;
24357;SDS011;13668;52.154;5.580;2023-04-24T13:21:51;1.67;;;0.80;;
24357;SDS011;13668;52.154;5.580;2023-04-24T13:24:17;2.10;;;1.10;;
24357;SDS011;13668;52.154;5.580;2023-04-24T13:26:43;10.10;;;1.13;;
24357;SDS011;13668;52.154;5.580;2023-04-24T13:29:09;0.93;;;0.68;;
24357;SDS011;13668;52.154;5.580;2023-04-24T13:31:35;4.50;;;1.13;;
24357;SDS011;13668;52.154;5.580;2023-04-24T13:34:02;1.02;;;0.73;;
24357;SDS011;13668;52.154;5.580;2023-04-24T13:36:28;5.63;;;0.93;;
24357;SDS011;13668;52.154;5.580;2023-04-24T13:38:54;1.52;;;0.65;;
24357;SDS011;13668;52.154;5.580;2023-04-24T13:41:20;3.35;;;0.80;;
24357;SDS011;13668;52.154;5.580;2023-04-24T13:43:46;2.17;;;0.80;;
24357;SDS011;13668;52.154;5.580;2023-04-24T13:46:11;4.28;;;1.15;;
24357;SDS011;13668;52.154;5.580;2023-04-24T13:48:37;3.10;;;0.98;;
24357;SDS011;13668;52.154;5.580;2023-04-24T13:51:03;2.58;;;1.27;;
24357;SDS011;13668;52.154;5.580;2023-04-24T13:53:29;2.42;;;0.70;;
24357;SDS011;13668;52.154;5.580;2023-04-24T13:55:57;1.38;;;0.90;;
24357;SDS011;13668;52.154;5.580;2023-04-24T13:58:23;0.95;;;0.50;;
24357;SDS011;13668;52.154;5.580;2023-04-24T14:00:49;1.00;;;0.70;;
24357;SDS011;13668;52.154;5.580;2023-04-24T14:03:15;3.08;;;0.98;;
24357;SDS011;13668;52.154;5.580;2023-04-24T14:05:41;1.17;;;0.85;;
24357;SDS011;13668;52.154;5.580;2023-04-24T14:08:07;3.25;;;1.23;;
24357;SDS011;13668;52.154;5.580;2023-04-24T14:10:33;6.00;;;1.25;;
24357;SDS011;13668;52.154;5.580;2023-04-24T14:12:59;1.17;;;0.90;;
24357;SDS011;13668;52.154;5.580;2023-04-24T14:15:25;3.90;;;1.33;;
24357;SDS011;13668;52.154;5.580;2023-04-24T14:17:52;6.57;;;1.05;;
24357;SDS011;13668;52.154;5.580;2023-04-24T14:20:18;1.58;;;0.93;;
24357;SDS011;13668;52.154;5.580;2023-04-24T14:22:44;2.38;;;1.15;;
24357;SDS011;13668;52.154;5.580;2023-04-24T14:25:10;2.22;;;0.73;;
24357;SDS011;13668;52.154;5.580;2023-04-24T14:27:36;0.75;;;0.45;;
24357;SDS011;13668;52.154;5.580;2023-04-24T14:30:03;1.17;;;0.57;;
24357;SDS011;13668;52.154;5.580;2023-04-24T14:32:29;3.42;;;1.02;;
24357;SDS011;13668;52.154;5.580;2023-04-24T14:34:55;3.58;;;1.00;;
24357;SDS011;13668;52.154;5.580;2023-04-24T14:37:21;1.10;;;0.80;;
24357;SDS011;13668;52.154;5.580;2023-04-24T14:39:47;8.80;;;1.35;;
24357;SDS011;13668;52.154;5.580;2023-04-24T14:42:13;2.28;;;1.42;;
24357;SDS011;13668;52.154;5.580;2023-04-24T14:44:39;2.50;;;1.00;;
24357;SDS011;13668;52.154;5.580;2023-04-24T14:47:05;6.85;;;1.33;;
24357;SDS011;13668;52.154;5.580;2023-04-24T14:49:31;1.77;;;0.50;;
24357;SDS011;13668;52.154;5.580;2023-04-24T14:51:57;1.98;;;1.30;;